createdAt,value
2018-08-24T00:00:57.415Z,21.13
2018-08-24T00:04:01.330Z,27.17
2018-08-24T00:06:34.158Z,13.40
2018-08-24T00:09:08.986Z,24.15
2018-08-24T00:11:56.397Z,21.67
2018-08-24T00:14:29.476Z,22.43
2018-08-24T00:17:02.270Z,19.60
2018-08-24T00:19:35.139Z,16.80
2018-08-24T00:22:08.601Z,21.20
2018-08-24T00:24:41.584Z,21.60
2018-08-24T00:27:14.881Z,24.63
2018-08-24T00:29:47.794Z,16.77
2018-08-24T00:32:20.845Z,16.00
2018-08-24T00:34:53.744Z,22.27
2018-08-24T00:37:26.657Z,28.03
2018-08-24T00:39:59.723Z,26.17
2018-08-24T00:42:32.519Z,20.63
2018-08-24T00:45:05.535Z,25.03
2018-08-24T00:47:38.368Z,16.90
2018-08-24T00:50:11.388Z,17.87
2018-08-24T00:52:44.298Z,20.00
2018-08-24T00:55:17.287Z,27.60
2018-08-24T00:57:50.209Z,18.17
2018-08-24T01:00:27.635Z,19.23
2018-08-24T01:03:00.619Z,15.93
2018-08-24T01:05:33.391Z,15.40
2018-08-24T01:08:09.621Z,26.13
2018-08-24T01:10:42.468Z,22.47
2018-08-24T01:13:17.298Z,27.17
2018-08-24T01:15:55.779Z,19.67
2018-08-24T01:18:32.940Z,32.27
2018-08-24T01:21:05.828Z,27.23
2018-08-24T01:23:38.996Z,47.60
2018-08-24T01:26:12.195Z,35.95
2018-08-24T01:28:46.065Z,24.80
2018-08-24T01:31:19.173Z,46.17
2018-08-24T01:33:52.306Z,23.23
2018-08-24T01:36:25.499Z,20.40
2018-08-24T01:38:58.366Z,37.40
2018-08-24T01:41:31.596Z,21.50
2018-08-24T01:44:04.643Z,20.03
2018-08-24T01:46:37.747Z,18.47
2018-08-24T01:49:11.616Z,16.82
2018-08-24T01:51:45.934Z,19.53
2018-08-24T01:54:18.868Z,24.73
2018-08-24T01:56:51.786Z,19.23
2018-08-24T01:59:24.631Z,18.93
2018-08-24T02:01:57.498Z,17.30
2018-08-24T02:04:31.554Z,20.93
2018-08-24T02:07:04.314Z,16.67
2018-08-24T02:09:37.135Z,16.27
2018-08-24T02:12:14.123Z,20.50
2018-08-24T02:14:50.652Z,23.80
2018-08-24T02:17:27.932Z,19.63
2018-08-24T02:20:05.173Z,17.53
2018-08-24T02:22:38.146Z,14.57
2018-08-24T02:25:11.166Z,15.32
2018-08-24T02:27:43.993Z,11.43
2018-08-24T02:30:16.924Z,15.80
2018-08-24T02:32:49.929Z,13.60
2018-08-24T02:35:22.775Z,13.40
2018-08-24T02:37:55.578Z,11.20
2018-08-24T02:40:28.936Z,12.73
2018-08-24T02:43:02.196Z,12.63
2018-08-24T02:45:35.253Z,13.47
2018-08-24T02:48:08.231Z,11.30
2018-08-24T02:50:41.400Z,13.87
2018-08-24T02:53:14.294Z,9.90
2018-08-24T02:55:47.014Z,16.77
2018-08-24T02:58:19.835Z,16.43
2018-08-24T03:00:52.871Z,15.30
2018-08-24T03:03:25.887Z,15.23
2018-08-24T03:05:58.937Z,20.73
2018-08-24T03:08:31.730Z,16.27
2018-08-24T03:11:04.625Z,15.83
2018-08-24T03:13:37.427Z,16.13
2018-08-24T03:16:10.685Z,17.07
2018-08-24T03:18:43.622Z,24.67
2018-08-24T03:21:16.414Z,15.37
2018-08-24T03:23:49.837Z,20.70
2018-08-24T03:26:22.772Z,13.00
2018-08-24T03:28:55.718Z,13.83
2018-08-24T03:31:28.838Z,17.87
2018-08-24T03:34:01.634Z,19.30
2018-08-24T03:36:35.020Z,17.23
2018-08-24T03:39:09.421Z,17.63
2018-08-24T03:41:42.218Z,15.48
2018-08-24T03:44:16.637Z,32.30
2018-08-24T03:46:49.766Z,82.70
2018-08-24T03:49:22.748Z,53.10
2018-08-24T03:51:55.701Z,18.83
2018-08-24T03:54:28.559Z,16.87
2018-08-24T03:57:01.836Z,15.03
2018-08-24T03:59:34.777Z,13.57
2018-08-24T04:02:10.893Z,15.08
2018-08-24T04:04:44.099Z,12.83
2018-08-24T04:07:17.969Z,15.40
2018-08-24T04:09:50.788Z,15.20
2018-08-24T04:12:23.550Z,13.73
2018-08-24T04:14:56.380Z,12.67
2018-08-24T04:17:33.610Z,20.10
2018-08-24T04:20:06.457Z,18.17
2018-08-24T04:22:39.155Z,19.60
2018-08-24T04:25:12.678Z,16.67
2018-08-24T04:27:45.484Z,16.30
2018-08-24T04:30:18.163Z,18.93
2018-08-24T04:32:50.846Z,14.23
2018-08-24T04:35:23.513Z,16.63
2018-08-24T04:37:56.466Z,16.17
2018-08-24T04:40:29.349Z,14.60
2018-08-24T04:43:02.306Z,17.07
2018-08-24T04:45:35.291Z,15.17
2018-08-24T04:48:08.420Z,16.60
2018-08-24T04:50:41.221Z,13.57
2018-08-24T04:53:14.020Z,15.15
2018-08-24T04:55:46.884Z,17.03
2018-08-24T04:58:19.998Z,14.40
2018-08-24T05:00:52.852Z,15.63
2018-08-24T05:03:25.685Z,16.30
2018-08-24T05:05:58.600Z,19.23
2018-08-24T05:08:31.339Z,15.67
2018-08-24T05:11:04.321Z,17.17
2018-08-24T05:13:37.143Z,13.60
2018-08-24T05:16:10.143Z,15.30
2018-08-24T05:18:42.968Z,18.13
2018-08-24T05:21:15.865Z,15.67
2018-08-24T05:23:48.919Z,16.07
2018-08-24T05:26:21.885Z,13.73
2018-08-24T05:28:55.153Z,19.13
2018-08-24T05:31:27.852Z,16.62
2018-08-24T05:34:00.819Z,15.73
2018-08-24T05:36:33.717Z,15.40
2018-08-24T05:39:07.187Z,16.37
2018-08-24T05:41:39.968Z,15.27
2018-08-24T05:44:12.817Z,19.33
2018-08-24T05:46:45.552Z,17.02
2018-08-24T05:49:18.391Z,15.03
2018-08-24T05:51:51.242Z,19.43
2018-08-24T05:54:24.157Z,16.87
2018-08-24T05:56:57.447Z,17.17
2018-08-24T05:59:30.423Z,18.20
2018-08-24T06:02:05.750Z,17.77
2018-08-24T06:04:38.816Z,16.47
2018-08-24T06:07:11.608Z,14.27
2018-08-24T06:09:44.425Z,15.40
2018-08-24T06:12:17.292Z,16.80
2018-08-24T06:14:50.280Z,16.10
2018-08-24T06:18:52.305Z,18.80
2018-08-24T06:21:25.342Z,22.17
2018-08-24T06:23:59.124Z,18.57
2018-08-24T06:26:32.319Z,20.10
2018-08-24T06:29:05.547Z,21.27
2018-08-24T06:31:38.447Z,19.93
2018-08-24T06:34:11.216Z,18.57
2018-08-24T06:36:44.021Z,18.23
2018-08-24T06:39:16.811Z,18.27
2018-08-24T06:41:49.789Z,16.80
2018-08-24T06:44:22.671Z,20.17
2018-08-24T06:46:55.537Z,19.23
2018-08-24T06:49:28.335Z,14.60
2018-08-24T06:52:01.209Z,14.60
2018-08-24T06:54:33.983Z,14.33
2018-08-24T06:57:06.907Z,14.93
2018-08-24T06:59:39.728Z,16.87
2018-08-24T07:02:12.728Z,13.83
2018-08-24T07:04:45.734Z,14.73
2018-08-24T07:07:18.841Z,12.27
2018-08-24T07:09:51.706Z,15.03
2018-08-24T07:12:24.763Z,16.77
2018-08-24T07:14:57.456Z,18.43
2018-08-24T07:17:34.703Z,19.73
2018-08-24T07:20:07.650Z,17.40
2018-08-24T07:22:40.773Z,17.67
2018-08-24T07:25:13.678Z,19.45
2018-08-24T07:27:46.548Z,13.73
2018-08-24T07:30:19.513Z,18.53
2018-08-24T07:32:52.420Z,16.03
2018-08-24T07:35:25.231Z,17.20
2018-08-24T07:37:58.347Z,24.93
2018-08-24T07:40:31.222Z,13.27
2018-08-24T07:43:04.096Z,12.97
2018-08-24T07:45:37.024Z,15.73
2018-08-24T07:48:09.842Z,17.20
2018-08-24T07:50:42.763Z,25.50
2018-08-24T07:53:15.629Z,14.33
2018-08-24T07:55:48.266Z,10.90
2018-08-24T07:58:21.338Z,10.23
2018-08-24T08:00:54.165Z,12.20
2018-08-24T08:03:27.180Z,16.03
2018-08-24T08:06:00.517Z,17.47
2018-08-24T08:08:33.378Z,18.57
2018-08-24T08:11:06.513Z,15.40
2018-08-24T08:13:41.964Z,16.67
2018-08-24T08:16:15.202Z,15.27
2018-08-24T08:18:48.036Z,13.30
2018-08-24T08:21:21.035Z,13.07
2018-08-24T08:23:53.827Z,13.13
2018-08-24T08:26:26.776Z,15.13
2018-08-24T08:28:59.581Z,12.00
2018-08-24T08:31:32.601Z,12.80
2018-08-24T08:34:05.441Z,13.07
2018-08-24T08:36:38.435Z,15.63
2018-08-24T08:39:13.698Z,17.67
2018-08-24T08:41:46.553Z,13.97
2018-08-24T08:44:19.375Z,13.87
2018-08-24T08:46:52.263Z,14.17
2018-08-24T08:49:25.427Z,12.47
2018-08-24T08:51:58.036Z,12.63
2018-08-24T08:54:30.858Z,16.57
2018-08-24T08:57:03.814Z,11.27
2018-08-24T08:59:37.526Z,12.53
2018-08-24T09:02:12.716Z,14.28
2018-08-24T09:04:45.564Z,10.70
2018-08-24T09:07:24.965Z,12.27
2018-08-24T09:10:00.681Z,12.30
2018-08-24T09:12:33.360Z,11.97
2018-08-24T09:15:06.328Z,34.30
2018-08-24T09:17:43.576Z,13.60
2018-08-24T09:20:20.692Z,12.90
2018-08-24T09:22:58.041Z,12.83
2018-08-24T09:25:35.315Z,12.87
2018-08-24T09:28:40.375Z,14.00
2018-08-24T09:31:17.952Z,13.32
2018-08-24T09:33:50.736Z,12.57
2018-08-24T09:36:24.839Z,10.13
2018-08-24T09:38:57.759Z,10.77
2018-08-24T09:41:30.505Z,11.40
2018-08-24T09:44:03.218Z,12.58
2018-08-24T09:46:40.354Z,13.47
2018-08-24T09:49:17.577Z,14.07
2018-08-24T09:51:50.591Z,12.25
2018-08-24T09:54:23.461Z,10.20
2018-08-24T09:56:56.252Z,11.33
2018-08-24T09:59:29.269Z,14.07
2018-08-24T10:02:06.252Z,11.33
2018-08-24T10:04:43.348Z,10.73
2018-08-24T10:07:20.568Z,14.60
2018-08-24T10:09:53.381Z,12.90
2018-08-24T10:12:26.077Z,13.90
2018-08-24T10:14:58.661Z,12.40
2018-08-24T10:17:31.578Z,14.83
2018-08-24T10:20:06.703Z,14.27
2018-08-24T10:22:39.585Z,14.10
2018-08-24T10:25:21.859Z,15.07
2018-08-24T10:28:03.663Z,17.63
2018-08-24T10:30:40.449Z,13.47
2018-08-24T10:33:13.231Z,17.33
2018-08-24T10:35:45.912Z,19.63
2018-08-24T10:38:19.067Z,14.90
2018-08-24T10:40:51.770Z,15.33
2018-08-24T10:43:24.623Z,19.77
2018-08-24T10:45:57.318Z,17.77
2018-08-24T10:48:30.022Z,17.70
2018-08-24T10:51:02.746Z,20.37
2018-08-24T10:53:35.392Z,23.13
2018-08-24T10:56:08.485Z,22.13
2018-08-24T10:58:41.386Z,22.40
2018-08-24T11:01:13.976Z,17.07
2018-08-24T11:03:46.800Z,16.00
2018-08-24T11:06:19.666Z,22.03
2018-08-24T11:08:52.181Z,23.57
2018-08-24T11:11:25.166Z,72.67
2018-08-24T11:13:58.049Z,119.60
2018-08-24T11:16:30.873Z,46.70
2018-08-24T11:19:03.786Z,26.17
2018-08-24T11:21:36.629Z,27.27
2018-08-24T11:24:09.345Z,21.53
2018-08-24T11:26:42.424Z,37.93
2018-08-24T11:29:16.010Z,24.90
2018-08-24T11:31:48.854Z,22.17
2018-08-24T11:34:21.798Z,28.03
2018-08-24T11:36:54.471Z,23.40
2018-08-24T11:39:27.157Z,25.25
2018-08-24T11:41:59.834Z,22.23
2018-08-24T11:44:32.756Z,32.53
2018-08-24T11:47:05.479Z,25.60
2018-08-24T11:49:38.296Z,26.53
2018-08-24T11:52:11.005Z,24.77
2018-08-24T11:54:43.860Z,26.07
2018-08-24T11:57:16.567Z,22.55
2018-08-24T11:59:49.463Z,25.20
2018-08-24T12:02:22.227Z,20.53
2018-08-24T12:04:54.972Z,20.87
2018-08-24T12:07:27.570Z,27.50
2018-08-24T12:10:00.443Z,20.20
2018-08-24T12:12:33.529Z,27.67
2018-08-24T12:15:06.412Z,18.80
2018-08-24T12:17:39.933Z,22.23
2018-08-24T12:20:12.896Z,26.17
2018-08-24T12:22:45.615Z,53.23
2018-08-24T12:25:18.538Z,27.27
2018-08-24T12:28:00.969Z,22.83
2018-08-24T12:30:45.268Z,21.93
2018-08-24T12:33:32.790Z,22.07
2018-08-24T12:36:12.822Z,21.07
2018-08-24T12:39:01.719Z,26.40
2018-08-24T12:41:45.739Z,21.97
2018-08-24T12:44:29.532Z,31.77
2018-08-24T12:50:57.393Z,26.00
2018-08-24T12:53:44.497Z,22.70
2018-08-24T12:56:27.721Z,18.77
2018-08-24T12:59:03.087Z,24.25
2018-08-24T13:01:36.254Z,19.00
2018-08-24T13:05:21.909Z,21.53
2018-08-24T13:07:55.494Z,26.20
2018-08-24T13:10:28.521Z,22.67
2018-08-24T13:13:01.398Z,23.90
2018-08-24T13:15:34.339Z,22.70
2018-08-24T13:18:07.553Z,21.70
2018-08-24T13:20:40.810Z,19.32
2018-08-24T13:23:14.273Z,18.57
2018-08-24T13:25:49.516Z,20.23
2018-08-24T13:28:23.474Z,21.80
2018-08-24T13:30:59.808Z,25.63
2018-08-24T13:33:37.833Z,21.97
2018-08-24T13:36:13.391Z,38.73
2018-08-24T13:38:53.576Z,30.80
2018-08-24T13:41:29.026Z,26.33
2018-08-24T13:44:02.336Z,19.90
2018-08-24T13:46:38.112Z,18.70
2018-08-24T13:49:14.351Z,19.10
2018-08-24T13:51:51.291Z,19.03
2018-08-24T13:54:27.392Z,19.37
2018-08-24T13:57:04.259Z,14.27
2018-08-24T13:59:40.165Z,18.60
2018-08-24T14:02:18.056Z,16.67
2018-08-24T14:04:51.908Z,32.40
2018-08-24T14:07:27.494Z,60.23
2018-08-24T14:10:00.738Z,57.33
2018-08-24T14:12:35.692Z,56.80
2018-08-24T14:15:08.573Z,66.40
2018-08-24T14:17:50.549Z,22.17
2018-08-24T14:20:25.204Z,17.37
2018-08-24T14:23:05.860Z,17.23
2018-08-24T14:25:38.968Z,18.42
2018-08-24T14:28:23.094Z,18.70
2018-08-24T14:31:01.508Z,18.37
2018-08-24T14:33:35.973Z,40.23
2018-08-24T14:36:11.134Z,25.73
2018-08-24T14:38:45.339Z,31.73
2018-08-24T14:41:18.234Z,33.42
2018-08-24T14:43:52.287Z,25.47
2018-08-24T14:46:35.377Z,18.77
2018-08-24T14:49:09.363Z,16.33
2018-08-24T14:51:42.915Z,18.83
2018-08-24T14:54:16.065Z,16.80
2018-08-24T14:56:50.514Z,11.63
2018-08-24T14:59:24.160Z,14.97
2018-08-24T15:01:57.833Z,16.60
2018-08-24T15:04:31.304Z,43.13
2018-08-24T15:07:06.946Z,17.17
2018-08-24T15:09:40.899Z,17.27
2018-08-24T15:12:16.523Z,19.77
2018-08-24T15:14:51.123Z,47.48
2018-08-24T15:17:25.989Z,16.47
2018-08-24T15:20:00.135Z,17.63
2018-08-24T15:22:34.121Z,14.58
2018-08-24T15:27:18.185Z,18.87
2018-08-24T15:29:55.096Z,24.20
2018-08-24T15:32:30.541Z,15.20
2018-08-24T15:35:03.912Z,22.97
2018-08-24T15:37:38.104Z,21.47
2018-08-24T15:40:14.601Z,20.17
2018-08-24T15:42:52.320Z,16.83
2018-08-24T15:45:26.740Z,21.12
2018-08-24T15:47:59.896Z,32.83
2018-08-24T15:50:34.027Z,9.50
2018-08-24T15:53:10.162Z,13.83
2018-08-24T15:55:44.194Z,8.10
2018-08-24T15:58:19.396Z,18.63
2018-08-24T16:00:52.779Z,11.87
2018-08-24T16:03:29.665Z,16.40
2018-08-24T16:06:03.383Z,18.77
2018-08-24T16:08:38.182Z,20.47
2018-08-24T16:11:13.784Z,16.07
2018-08-24T16:13:47.147Z,12.77
2018-08-24T16:16:20.225Z,18.00
2018-08-24T16:18:53.134Z,23.67
2018-08-24T16:21:25.880Z,18.90
2018-08-24T16:23:58.743Z,17.17
2018-08-24T16:26:31.690Z,20.40
2018-08-24T16:29:04.813Z,13.83
2018-08-24T16:31:39.535Z,16.40
2018-08-24T16:34:16.077Z,19.30
2018-08-24T16:36:49.725Z,17.03
2018-08-24T16:39:25.996Z,23.73
2018-08-24T16:41:59.014Z,23.50
2018-08-24T16:44:33.163Z,15.43
2018-08-24T16:47:05.876Z,21.50
2018-08-24T16:49:39.028Z,18.47
2018-08-24T16:52:13.880Z,11.80
2018-08-24T16:54:46.938Z,15.93
2018-08-24T16:57:20.383Z,14.33
2018-08-24T16:59:56.717Z,8.13
2018-08-24T17:02:30.270Z,10.53
2018-08-24T17:05:04.802Z,18.50
2018-08-24T17:07:37.877Z,10.50
2018-08-24T17:10:14.961Z,13.83
2018-08-24T17:13:01.806Z,15.33
2018-08-24T17:15:35.485Z,13.80
2018-08-24T17:18:14.140Z,10.93
2018-08-24T17:20:47.157Z,8.90
2018-08-24T17:23:19.981Z,13.60
2018-08-24T17:25:53.058Z,10.83
2018-08-24T17:28:25.727Z,11.27
2018-08-24T17:30:59.494Z,15.83
2018-08-24T17:33:32.598Z,10.40
2018-08-24T17:36:05.395Z,15.83
2018-08-24T17:38:39.590Z,13.97
2018-08-24T17:41:12.361Z,9.63
2018-08-24T17:43:45.489Z,12.18
2018-08-24T17:46:18.371Z,7.47
2018-08-24T17:48:54.120Z,7.50
2018-08-24T17:51:27.319Z,12.57
2018-08-24T17:54:00.197Z,14.80
2018-08-24T17:56:33.196Z,12.63
2018-08-24T17:59:06.384Z,12.73
2018-08-24T18:01:54.358Z,12.17
2018-08-24T18:04:28.386Z,9.30
2018-08-24T18:09:56.088Z,10.97
2018-08-24T18:12:30.171Z,11.27
2018-08-24T18:15:04.791Z,12.63
2018-08-24T18:17:40.036Z,11.53
2018-08-24T18:20:15.100Z,12.00
2018-08-24T18:22:51.113Z,10.87
2018-08-24T18:25:34.954Z,12.03
2018-08-24T18:28:08.090Z,11.17
2018-08-24T18:30:40.816Z,9.05
2018-08-24T18:33:13.835Z,15.47
2018-08-24T18:35:46.614Z,11.00
2018-08-24T18:38:24.980Z,12.37
2018-08-24T18:40:58.301Z,15.67
2018-08-24T18:43:31.204Z,12.95
2018-08-24T18:46:05.406Z,12.77
2018-08-24T18:48:38.484Z,10.00
2018-08-24T18:51:11.916Z,9.90
2018-08-24T18:53:44.697Z,10.23
2018-08-24T18:56:17.849Z,20.13
2018-08-24T18:58:50.854Z,20.45
2018-08-24T19:01:23.793Z,11.57
2018-08-24T19:03:56.837Z,11.20
2018-08-24T19:06:30.925Z,10.90
2018-08-24T19:09:05.435Z,6.62
2018-08-24T19:11:43.352Z,12.77
2018-08-24T19:14:18.144Z,10.60
2018-08-24T19:16:52.166Z,12.97
2018-08-24T19:19:30.340Z,21.90
2018-08-24T19:22:30.579Z,10.33
2018-08-24T19:25:12.077Z,11.63
2018-08-24T19:27:49.178Z,14.95
2018-08-24T19:30:26.632Z,11.13
2018-08-24T19:32:59.757Z,13.28
2018-08-24T19:35:34.383Z,9.48
2018-08-24T19:38:08.607Z,9.88
2018-08-24T19:40:45.831Z,13.30
2018-08-24T19:43:18.749Z,9.85
2018-08-24T19:45:52.451Z,7.03
2018-08-24T19:48:30.182Z,10.38
2018-08-24T19:51:03.063Z,7.10
2018-08-24T19:53:39.930Z,19.35
2018-08-24T19:56:12.912Z,14.70
2018-08-24T19:58:50.504Z,10.55
2018-08-24T20:01:24.900Z,8.10
2018-08-24T20:06:41.934Z,13.95
2018-08-24T20:09:21.294Z,11.95
2018-08-24T20:11:54.959Z,12.50
2018-08-24T20:14:36.640Z,10.93
2018-08-24T20:17:15.457Z,10.85
2018-08-24T20:19:48.547Z,11.55
2018-08-24T20:22:22.689Z,9.80
2018-08-24T20:24:58.529Z,13.45
2018-08-24T20:27:31.872Z,12.20
2018-08-24T20:30:04.744Z,8.60
2018-08-24T20:32:38.676Z,14.58
2018-08-24T20:35:12.194Z,12.55
2018-08-24T20:37:45.933Z,5.45
2018-08-24T20:40:20.808Z,6.53
2018-08-24T20:42:54.808Z,11.53
2018-08-24T20:45:28.729Z,16.87
2018-08-24T20:48:02.406Z,9.68
2018-08-24T20:50:35.392Z,10.63
2018-08-24T20:53:09.252Z,11.03
2018-08-24T20:55:45.705Z,14.93
2018-08-24T20:58:21.944Z,11.30
2018-08-24T21:00:56.660Z,10.15
2018-08-24T21:03:34.965Z,6.40
2018-08-24T21:06:08.709Z,8.93
2018-08-24T21:08:41.475Z,21.62
2018-08-24T21:11:14.584Z,9.83
2018-08-24T21:13:47.430Z,18.62
2018-08-24T21:16:20.330Z,7.22
2018-08-24T21:18:53.260Z,11.83
2018-08-24T21:21:26.240Z,14.38
2018-08-24T21:23:59.224Z,12.63
2018-08-24T21:26:33.049Z,10.20
2018-08-24T21:29:06.109Z,8.70
2018-08-24T21:31:40.134Z,10.93
2018-08-24T21:34:13.214Z,12.03
2018-08-24T21:36:46.106Z,10.03
2018-08-24T21:39:19.381Z,11.30
2018-08-24T21:41:52.366Z,13.95
2018-08-24T21:44:26.159Z,14.65
2018-08-24T21:47:00.671Z,14.28
2018-08-24T21:49:33.567Z,15.05
2018-08-24T21:52:06.423Z,11.95
2018-08-24T21:54:39.387Z,10.87
2018-08-24T21:57:12.307Z,10.37
2018-08-24T21:59:45.308Z,14.37
2018-08-24T22:02:18.240Z,11.75
2018-08-24T22:04:52.326Z,15.30
2018-08-24T22:07:26.144Z,15.43
2018-08-24T22:09:59.341Z,12.03
2018-08-24T22:12:33.208Z,9.90
2018-08-24T22:15:06.173Z,10.00
2018-08-24T22:17:40.477Z,12.10
2018-08-24T22:20:14.366Z,11.97
2018-08-24T22:22:47.286Z,9.57
2018-08-24T22:25:22.846Z,8.63
2018-08-24T22:27:55.900Z,15.03
2018-08-24T22:30:29.522Z,13.90
2018-08-24T22:33:02.378Z,10.93
2018-08-24T22:35:35.782Z,12.83
2018-08-24T22:38:09.364Z,10.97
2018-08-24T22:40:42.184Z,14.47
2018-08-24T22:43:19.260Z,12.23
2018-08-24T22:45:53.208Z,8.37
2018-08-24T22:48:26.202Z,15.47
2018-08-24T22:50:59.620Z,11.30
2018-08-24T22:53:32.614Z,8.83
2018-08-24T22:56:05.815Z,9.83
2018-08-24T22:58:38.811Z,10.17
2018-08-24T23:01:11.945Z,12.87
2018-08-24T23:03:44.897Z,8.10
2018-08-24T23:06:17.811Z,12.95
2018-08-24T23:08:51.488Z,10.13
2018-08-24T23:11:24.214Z,11.10
2018-08-24T23:14:01.110Z,10.80
2018-08-24T23:16:38.016Z,12.00
2018-08-24T23:19:14.921Z,10.00
2018-08-24T23:21:52.083Z,9.57
2018-08-24T23:24:28.632Z,10.30
2018-08-24T23:27:01.704Z,10.63
2018-08-24T23:29:34.658Z,12.82
2018-08-24T23:32:07.763Z,14.03
2018-08-24T23:34:41.026Z,16.27
2018-08-24T23:37:14.043Z,12.37
2018-08-24T23:39:47.893Z,13.80
2018-08-24T23:42:21.935Z,11.87
2018-08-24T23:44:55.316Z,12.20
2018-08-24T23:47:28.226Z,12.57
2018-08-24T23:50:01.190Z,9.17
2018-08-24T23:52:34.121Z,11.17
2018-08-24T23:55:14.893Z,15.83
2018-08-24T23:57:49.599Z,13.77
